DW8453 Bekkjarvik NO current weather conditions

sailwx.info

Wind from 170

Air temperature 13.9° C
Dewpoint 12.6° C

Last reported at 2014-Aug-01 05:03 UTC.
Time now 2014-Aug-02 00:23 UTC

Location: N 60°01' E 005°12'.
View on Google Maps.

See reports from other nearby stations

  
Tides and Currents Weather Stations Pressure Air Temp Water Temp Dewpoint Dewpoint Depression Visibility Wind Speed Wind Dir Waves Ship Positions
date/time (UTC)wind fromknots sea level pressurealtimeterstation pressurevisibilityair tempwater tempwave heightnotes
2014-Aug-01 05:03 170 13.9
2014-Aug-01 04:53 202 13.9
2014-Aug-01 04:43 138 13.9
2014-Aug-01 04:33 090 0 gusting 1 13.3
2014-Aug-01 04:23 131 1 gusting 2 13.3
2014-Aug-01 04:13 146 1 gusting 1 13.3
2014-Aug-01 04:03 157 0 gusting 1 13.3
2014-Aug-01 03:53 164 0 gusting 0 13.3
2014-Aug-01 03:43 158 0 gusting 0 13.3
2014-Aug-01 03:33 045 13.3
2014-Aug-01 03:23 13.3
2014-Aug-01 03:13 024 3 gusting 6 13.3
2014-Aug-01 03:03 022 2 gusting 5 13.3
2014-Aug-01 02:53 035 1 gusting 2 13.3
2014-Aug-01 02:43 358 0 gusting 5 13.3
2014-Aug-01 02:33 344 1 gusting 6 13.9
2014-Aug-01 02:23 349 3 gusting 6 13.9
2014-Aug-01 02:13 241 0 gusting 2 13.9
2014-Aug-01 02:03 346 13.9
2014-Aug-01 01:53 330 13.9
2014-Aug-01 01:43 265 3 gusting 5 13.9
2014-Aug-01 01:33 026 1 gusting 5 13.9
2014-Aug-01 01:23 275 0 gusting 4 13.9
2014-Aug-01 01:13 225 0 gusting 5 13.9
2014-Aug-01 01:03 205 4 gusting 7 13.9
2014-Aug-01 00:53 219 5 gusting 8 13.9
2014-Aug-01 00:43 202 5 gusting 11 14.4
2014-Aug-01 00:33 190 3 gusting 4 14.4
2014-Aug-01 00:23 189 2 gusting 4 14.4
2014-Aug-01 00:13 193 5 gusting 8 14.4
2014-Aug-01 00:03 180 2 gusting 4 14.4
2014-Jul-31 23:53 188 3 gusting 6 14.4
2014-Jul-31 23:43 189 10 gusting 13 14.4
2014-Jul-31 23:33 190 6 gusting 8 14.4
2014-Jul-31 23:23 155 2 gusting 4 14.4
2014-Jul-31 23:13 148 2 gusting 4 14.4
2014-Jul-31 23:03 198 1 gusting 5 14.4
2014-Jul-31 22:53 202 3 gusting 5 14.4
2014-Jul-31 22:43 175 2 gusting 5 14.4
2014-Jul-31 22:33 180 2 gusting 4 14.4
2014-Jul-31 22:23 213 4 gusting 5 14.4
2014-Jul-31 22:13 196 1 gusting 1 14.4
2014-Jul-31 22:03 202 0 gusting 1 14.4
2014-Jul-31 21:53 195 1 gusting 1 14.4
2014-Jul-31 21:43 202 1 gusting 1 14.4
2014-Jul-31 21:33 202 0 gusting 1 14.4
2014-Jul-31 21:23 225 0 gusting 1 14.4
2014-Jul-31 21:13 222 1 gusting 2 14.4
2014-Jul-31 21:03 230 1 gusting 2 15.0
2014-Jul-31 20:53 225 2 gusting 4 14.4
2014-Jul-31 20:43 192 1 gusting 6 15.0
2014-Jul-31 20:33 199 4 gusting 6 15.0
2014-Jul-31 20:23 210 6 gusting 11 15.6
2014-Jul-31 20:13 199 6 gusting 7 15.6
2014-Jul-31 20:03 195 1 gusting 1 15.6
2014-Jul-31 19:53 163 0 gusting 0 16.1
2014-Jul-31 19:43 135 16.1
2014-Jul-31 19:33 177 16.1
2014-Jul-31 19:23 222 0 gusting 1 16.1
2014-Jul-31 19:13 219 0 gusting 2 16.1
2014-Jul-31 19:03 270 1 gusting 2 16.1
2014-Jul-31 18:53 262 0 gusting 2 16.1
2014-Jul-31 18:43 248 2 gusting 4 16.7
2014-Jul-31 18:33 248 2 gusting 5 16.7
2014-Jul-31 18:23 270 2 gusting 5 16.7
2014-Jul-31 18:13 256 0 gusting 4 16.7
2014-Jul-31 18:03 278 3 gusting 5 16.7
2014-Jul-31 17:53 264 2 gusting 5 16.7
2014-Jul-31 17:43 317 0 gusting 5 16.7
2014-Jul-31 17:33 191 1 gusting 5 16.7
2014-Jul-31 17:23 180 3 gusting 5 16.7
2014-Jul-31 17:13 203 4 gusting 5 16.7
2014-Jul-31 17:03 196 4 gusting 7 17.2
2014-Jul-31 16:53 225 4 gusting 6 17.2
2014-Jul-31 16:43 232 2 gusting 5 17.8
2014-Jul-31 16:33 215 4 gusting 7 17.8
2014-Jul-31 16:23 241 3 gusting 7 17.8
2014-Jul-31 16:13 231 4 gusting 6 17.8
2014-Jul-31 16:03 261 2 gusting 6 17.8
2014-Jul-31 15:53 252 4 gusting 6 17.8
2014-Jul-31 15:43 233 2 gusting 6 17.8
2014-Jul-31 15:33 265 5 gusting 6 17.8
2014-Jul-31 15:23 270 4 gusting 10 17.8
2014-Jul-31 15:13 252 6 gusting 10 18.3
2014-Jul-31 15:03 242 4 gusting 10 18.3
2014-Jul-31 14:53 258 4 gusting 12 17.8
2014-Jul-31 14:43 248 8 gusting 12 18.9
2014-Jul-31 14:33 228 6 gusting 10 19.4
2014-Jul-31 14:23 215 5 gusting 8 18.9
2014-Jul-31 14:13 202 3 gusting 8 18.9
2014-Jul-31 14:03 235 6 gusting 7 18.9
2014-Jul-31 13:53 305 6 gusting 11 18.3
2014-Jul-31 13:43 266 7 gusting 12 18.9
2014-Jul-31 13:33 263 9 gusting 11 19.4
2014-Jul-31 13:23 194 6 gusting 7 18.9
2014-Jul-31 13:13 202 5 gusting 6 18.9
2014-Jul-31 13:03 235 4 gusting 7 18.3
2014-Jul-31 12:53 230 6 gusting 10 18.9
2014-Jul-31 12:43 201 6 gusting 8 18.3
2014-Jul-31 12:33 233 4 gusting 6 17.8
2014-Jul-31 12:23 226 7 gusting 11 17.8
2014-Jul-31 12:13 232 7 gusting 11 17.8
2014-Jul-31 12:03 220 8 gusting 12 17.8
2014-Jul-31 11:53 225 4 gusting 8 17.8
2014-Jul-31 11:43 223 6 gusting 7 17.2
2014-Jul-31 11:33 233 2 gusting 6 16.7
2014-Jul-31 11:23 229 2 gusting 6 16.1
2014-Jul-31 11:13 249 6 gusting 8 12.2
2014-Jul-31 10:53 215 10 gusting 13 18.9
2014-Jul-31 10:43 209 6 gusting 13 18.9
2014-Jul-31 10:33 255 7 gusting 12 18.3
2014-Jul-31 10:23 206 5 gusting 11 18.3
2014-Jul-31 10:13 206 10 gusting 11 20.0